Belleview, Florida
Current Conditions -  °F | °C
As of 4:55 AM on Sunday 23 Nov 2014 (Local Time) from KOCF Reporting Station
Overcast Overcast  
Wind Chill: 68°   Ceiling: 600
Heat Index: 68°   Visibility: 10mi
Dew Point: 66°   Wind: 5mph
Humidity: 94%   Direction: 150°SSE
Pressure: 29.99"   Gusts: NA
Location:  29.06°N, 82.05°W
Report Text: KOCF 230955Z AUTO 15004KT 10SM OVC006 20/19 A2999 RMK AO1
Loading
Personal Weather Stations






























Interactive Weather Map New forecast layout! Learn more

10-Day Weather Forecast

Advertisements
Track Severe Weather on mobile